Time;durP1;ratioP1;P1;durP2;ratioP2;P2;SDS_P1;SDS_P2;PMS_P1;PMS_P2;Temp;Humidity;BMP_temperature;BMP_pressure;BME280_temperature;BME280_humidity;BME280_pressure;Samples;Min_cycle;Max_cycle;Signal;HPM_P1;HPM_P2
2022/02/07 00:00:08;;;;;;;1.73;0.50;;;;;;;;;;5030590;28;20036;-60
2022/02/07 00:03:06;;;;;;;0.90;0.30;;;;;;;;;;5029739;28;20032;-60
2022/02/07 00:05:25;;;;;;;1.10;0.43;;;;;;;;;;5033718;28;20024;-59
2022/02/07 00:07:51;;;;;;;0.98;0.43;;;;;;;;;;5029660;28;20032;-59
2022/02/07 00:10:17;;;;;;;1.02;0.50;;;;;;;;;;5032865;28;20112;-60
2022/02/07 00:12:45;;;;;;;2.92;0.68;;;;;;;;;;5025893;28;20022;-59
2022/02/07 00:15:12;;;;;;;0.70;0.20;;;;;;;;;;5028546;28;20053;-60
2022/02/07 00:17:37;;;;;;;0.75;0.20;;;;;;;;;;5030574;28;20057;-60
2022/02/07 00:20:08;;;;;;;0.40;0.28;;;;;;;;;;5030268;28;20459;-59
2022/02/07 00:22:34;;;;;;;0.50;0.50;;;;;;;;;;5036333;28;20116;-59
2022/02/07 00:25:00;;;;;;;1.17;0.30;;;;;;;;;;5037603;28;20103;-60
2022/02/07 00:27:26;;;;;;;1.27;0.30;;;;;;;;;;5030634;28;20446;-60
2022/02/07 00:29:51;;;;;;;0.50;0.28;;;;;;;;;;5033808;28;20032;-59
2022/02/07 00:32:17;;;;;;;0.73;0.30;;;;;;;;;;5032538;28;20032;-59
2022/02/07 00:34:42;;;;;;;0.17;0.10;;;;;;;;;;5033961;28;20400;-59
2022/02/07 00:37:08;;;;;;;0.28;0.25;;;;;;;;;;5035676;28;20027;-59
2022/02/07 00:39:43;;;;;;;0.77;0.13;;;;;;;;;;5026022;28;20064;-59
2022/02/07 00:42:11;;;;;;;0.20;0.20;;;;;;;;;;5030686;28;20493;-59
2022/02/07 00:44:37;;;;;;;0.25;0.10;;;;;;;;;;5026567;28;20026;-63
2022/02/07 00:47:08;;;;;;;0.28;0.20;;;;;;;;;;5027248;28;20030;-59
2022/02/07 00:49:34;;;;;;;0.30;0.20;;;;;;;;;;5029123;28;20032;-60
2022/02/07 00:51:59;;;;;;;0.28;0.20;;;;;;;;;;5027889;28;20025;-59
2022/02/07 00:54:25;;;;;;;0.40;0.40;;;;;;;;;;5030812;28;20020;-60
2022/02/07 00:56:50;;;;;;;1.90;0.70;;;;;;;;;;5028147;28;20037;-59
2022/02/07 00:59:16;;;;;;;0.85;0.60;;;;;;;;;;5044091;28;20036;-58
2022/02/07 01:01:42;;;;;;;4.40;0.75;;;;;;;;;;5030305;28;20034;-59
2022/02/07 01:04:08;;;;;;;1.15;0.40;;;;;;;;;;5029439;28;20047;-59
2022/02/07 01:06:33;;;;;;;1.23;0.50;;;;;;;;;;5032412;28;20426;-59
2022/02/07 01:17:12;;;;;;;0.63;0.32;;;;;;;;;;5032591;28;20025;-59
2022/02/07 01:56:29;;;;;;;0.30;0.30;;;;;;;;;;5028646;28;20459;-59
2022/02/07 01:58:54;;;;;;;2.08;0.43;;;;;;;;;;5029215;28;20079;-59
2022/02/07 02:01:20;;;;;;;1.27;0.30;;;;;;;;;;5034831;28;20025;-59
2022/02/07 02:03:45;;;;;;;0.30;0.30;;;;;;;;;;5030834;28;20159;-59
2022/02/07 02:06:12;;;;;;;0.43;0.40;;;;;;;;;;5028579;28;20123;-59
2022/02/07 02:08:38;;;;;;;0.80;0.35;;;;;;;;;;5023997;28;20033;-59
2022/02/07 02:11:04;;;;;;;0.55;0.30;;;;;;;;;;5031010;28;20031;-59
2022/02/07 02:17:13;;;;;;;2.28;0.50;;;;;;;;;;5020751;28;20388;-59
2022/02/07 02:38:08;;;;;;;2.40;0.50;;;;;;;;;;5035351;28;20202;-59
2022/02/07 02:45:44;;;;;;;3.50;0.65;;;;;;;;;;5030685;28;20095;-59
2022/02/07 02:48:18;;;;;;;3.60;0.50;;;;;;;;;;5030155;28;20024;-59
2022/02/07 02:50:47;;;;;;;1.65;0.73;;;;;;;;;;5031254;28;20017;-59
2022/02/07 02:53:14;;;;;;;4.20;0.60;;;;;;;;;;5033398;28;20572;-58
2022/02/07 02:55:42;;;;;;;0.63;0.35;;;;;;;;;;5030862;28;20508;-58
2022/02/07 02:58:09;;;;;;;1.08;0.40;;;;;;;;;;5033485;28;20029;-59
2022/02/07 03:00:35;;;;;;;1.75;0.30;;;;;;;;;;5031548;28;20033;-59
2022/02/07 03:03:02;;;;;;;0.90;0.40;;;;;;;;;;5031231;28;20503;-59
2022/02/07 03:05:27;;;;;;;1.25;0.47;;;;;;;;;;5029580;28;20033;-58
2022/02/07 03:07:53;;;;;;;1.20;0.47;;;;;;;;;;5032661;28;20461;-58
2022/02/07 03:10:28;;;;;;;2.08;0.50;;;;;;;;;;5030805;28;20041;-59
2022/02/07 03:18:31;;;;;;;3.03;0.70;;;;;;;;;;5031481;28;20059;-58
2022/02/07 03:20:57;;;;;;;0.38;0.38;;;;;;;;;;5036844;28;20294;-58
2022/02/07 03:23:24;;;;;;;3.30;0.80;;;;;;;;;;5033386;28;20040;-58
2022/02/07 03:25:50;;;;;;;2.45;0.80;;;;;;;;;;5033460;28;20104;-57
2022/02/07 03:28:17;;;;;;;4.22;0.80;;;;;;;;;;5038547;28;20131;-58
2022/02/07 03:30:43;;;;;;;0.95;0.50;;;;;;;;;;5031479;28;20022;-57
2022/02/07 03:33:09;;;;;;;3.03;0.65;;;;;;;;;;5031141;28;20499;-58
2022/02/07 03:35:35;;;;;;;1.08;0.65;;;;;;;;;;5037685;28;20037;-58
2022/02/07 03:38:01;;;;;;;2.28;0.80;;;;;;;;;;5038852;28;20032;-59
2022/02/07 03:40:27;;;;;;;4.30;0.80;;;;;;;;;;5030133;28;20021;-59
2022/02/07 03:42:52;;;;;;;1.67;0.60;;;;;;;;;;5034465;28;20431;-59
2022/02/07 03:45:18;;;;;;;3.47;0.80;;;;;;;;;;5029767;28;20120;-59
2022/02/07 03:47:43;;;;;;;1.20;0.77;;;;;;;;;;5030107;28;20115;-59
2022/02/07 03:50:10;;;;;;;3.97;1.08;;;;;;;;;;5029420;28;20029;-58
2022/02/07 03:52:36;;;;;;;2.17;0.80;;;;;;;;;;5030868;28;20100;-59
2022/02/07 03:55:02;;;;;;;4.63;0.90;;;;;;;;;;5030563;28;20160;-59
2022/02/07 03:57:28;;;;;;;3.38;0.70;;;;;;;;;;5034997;28;20032;-59
2022/02/07 03:59:53;;;;;;;2.45;0.85;;;;;;;;;;5032959;28;20017;-59
2022/02/07 04:02:19;;;;;;;4.68;1.15;;;;;;;;;;5032480;28;20025;-59
2022/02/07 04:04:51;;;;;;;6.07;1.40;;;;;;;;;;5033311;28;20028;-59
2022/02/07 04:07:17;;;;;;;4.03;0.98;;;;;;;;;;5022984;28;20029;-59
2022/02/07 04:09:47;;;;;;;17.33;3.67;;;;;;;;;;5035910;28;20032;-58
2022/02/07 04:12:17;;;;;;;31.00;4.80;;;;;;;;;;5029766;28;20127;-59
2022/02/07 04:14:43;;;;;;;3.78;1.15;;;;;;;;;;5031570;28;20116;-59
2022/02/07 04:17:11;;;;;;;2.13;1.10;;;;;;;;;;5030703;28;20160;-58
2022/02/07 04:19:37;;;;;;;7.93;2.05;;;;;;;;;;5039371;28;20500;-58
2022/02/07 04:22:06;;;;;;;2.45;0.85;;;;;;;;;;5028627;28;20026;-58
2022/02/07 04:24:31;;;;;;;2.70;1.08;;;;;;;;;;5033990;28;20112;-57
2022/02/07 04:26:57;;;;;;;1.58;0.70;;;;;;;;;;5029744;28;20318;-59
2022/02/07 04:29:23;;;;;;;4.25;1.05;;;;;;;;;;5031829;28;20053;-57
2022/02/07 04:31:48;;;;;;;3.22;1.13;;;;;;;;;;5034156;28;20021;-58
2022/02/07 04:34:14;;;;;;;2.13;1.05;;;;;;;;;;5032412;28;20025;-58
2022/02/07 04:36:44;;;;;;;4.68;0.70;;;;;;;;;;5030962;28;20109;-58
2022/02/07 04:39:10;;;;;;;2.80;0.65;;;;;;;;;;5029413;28;20040;-58
2022/02/07 04:41:40;;;;;;;7.15;1.48;;;;;;;;;;5028630;28;20104;-58
2022/02/07 04:44:09;;;;;;;2.80;0.50;;;;;;;;;;5028693;28;20109;-59
2022/02/07 04:59:44;;;;;;;2.70;1.23;;;;;;;;;;5029144;28;20033;-60
2022/02/07 05:13:44;;;;;;;7.10;1.20;;;;;;;;;;5027351;28;20068;-60
2022/02/07 05:16:01;;;;;;;4.00;1.20;;;;;;;;;;5031070;28;20090;-60
2022/02/07 05:18:28;;;;;;;8.05;1.33;;;;;;;;;;5036772;28;20037;-60
2022/02/07 05:20:53;;;;;;;4.20;1.20;;;;;;;;;;5035158;28;20105;-60
2022/02/07 05:23:19;;;;;;;5.05;1.15;;;;;;;;;;5036038;28;20037;-60
2022/02/07 05:25:44;;;;;;;6.47;1.40;;;;;;;;;;5037050;28;20071;-60
2022/02/07 05:28:10;;;;;;;4.95;1.30;;;;;;;;;;5031627;28;20175;-60
2022/02/07 05:30:35;;;;;;;12.65;3.47;;;;;;;;;;5031258;28;20029;-60
2022/02/07 05:33:01;;;;;;;6.57;1.70;;;;;;;;;;5033213;28;20496;-60
2022/02/07 05:35:26;;;;;;;7.72;1.88;;;;;;;;;;5027287;28;20515;-60
2022/02/07 05:37:52;;;;;;;13.23;2.40;;;;;;;;;;5030221;28;20052;-60
2022/02/07 05:40:38;;;;;;;7.70;1.60;;;;;;;;;;5024305;28;20026;-61
2022/02/07 05:43:04;;;;;;;5.78;1.30;;;;;;;;;;5027120;28;20029;-60
2022/02/07 05:45:30;;;;;;;5.30;1.73;;;;;;;;;;5028379;28;20033;-60
2022/02/07 05:47:55;;;;;;;5.50;1.58;;;;;;;;;;5026507;28;20025;-61
2022/02/07 05:50:21;;;;;;;6.75;1.80;;;;;;;;;;5031378;28;20037;-60
2022/02/07 05:52:46;;;;;;;9.88;2.50;;;;;;;;;;5032479;28;20071;-60
2022/02/07 05:55:12;;;;;;;20.45;4.03;;;;;;;;;;5029673;28;20083;-61
2022/02/07 05:57:37;;;;;;;14.82;3.65;;;;;;;;;;5029474;28;20029;-61
2022/02/07 06:00:05;;;;;;;18.63;4.22;;;;;;;;;;5034738;28;20029;-61
2022/02/07 06:02:30;;;;;;;21.88;5.97;;;;;;;;;;5028703;28;20182;-61
2022/02/07 06:04:56;;;;;;;16.55;4.57;;;;;;;;;;5027138;28;20177;-62
2022/02/07 06:07:21;;;;;;;19.58;6.10;;;;;;;;;;5027846;28;20044;-61
2022/02/07 06:09:47;;;;;;;21.60;4.93;;;;;;;;;;5029347;28;20065;-61
2022/02/07 06:12:12;;;;;;;20.90;5.93;;;;;;;;;;5030929;28;20025;-62
2022/02/07 06:14:38;;;;;;;17.17;4.90;;;;;;;;;;5031098;28;20049;-62
2022/02/07 06:17:03;;;;;;;17.38;4.18;;;;;;;;;;5024898;28;20020;-62
2022/02/07 06:19:29;;;;;;;12.15;3.15;;;;;;;;;;5029199;28;20071;-62
2022/02/07 06:21:55;;;;;;;9.70;3.05;;;;;;;;;;5034031;28;20041;-61
2022/02/07 06:24:21;;;;;;;10.13;2.75;;;;;;;;;;5034215;28;20057;-61
2022/02/07 06:26:47;;;;;;;9.02;3.30;;;;;;;;;;5030109;28;20118;-62
2022/02/07 06:29:12;;;;;;;11.57;3.88;;;;;;;;;;5027442;28;20382;-61
2022/02/07 06:31:37;;;;;;;10.93;3.28;;;;;;;;;;5020987;28;20091;-61
2022/02/07 06:34:03;;;;;;;10.88;2.92;;;;;;;;;;5027655;28;20053;-61
2022/02/07 06:36:28;;;;;;;14.27;2.80;;;;;;;;;;5029953;28;20025;-61
2022/02/07 06:38:54;;;;;;;13.07;3.17;;;;;;;;;;5025378;28;20108;-61
2022/02/07 06:41:20;;;;;;;12.82;3.17;;;;;;;;;;5025846;28;20053;-62
2022/02/07 06:43:45;;;;;;;25.42;8.63;;;;;;;;;;5024792;28;20061;-61
2022/02/07 06:46:11;;;;;;;28.17;13.48;;;;;;;;;;5024823;28;20029;-61
2022/02/07 06:48:37;;;;;;;17.95;6.10;;;;;;;;;;5028153;28;20040;-62
2022/02/07 06:51:03;;;;;;;16.02;3.92;;;;;;;;;;5030973;28;20026;-62
2022/02/07 06:53:29;;;;;;;9.77;2.30;;;;;;;;;;5029889;28;20413;-60
2022/02/07 06:55:55;;;;;;;15.75;2.72;;;;;;;;;;5029206;28;20033;-60
2022/02/07 06:58:20;;;;;;;9.07;2.28;;;;;;;;;;5030534;28;20564;-61
2022/02/07 07:00:46;;;;;;;10.18;2.10;;;;;;;;;;5022977;28;20029;-60
2022/02/07 07:03:18;;;;;;;5.55;2.05;;;;;;;;;;5021907;28;20025;-61
2022/02/07 07:05:44;;;;;;;7.50;2.15;;;;;;;;;;5029556;28;20412;-61
2022/02/07 07:08:09;;;;;;;8.35;2.63;;;;;;;;;;5025653;28;20025;-61
2022/02/07 07:10:35;;;;;;;6.00;1.20;;;;;;;;;;5033908;28;20491;-61
2022/02/07 07:13:07;;;;;;;7.38;1.73;;;;;;;;;;5036689;28;20453;-62
2022/02/07 07:18:22;;;;;;;7.10;2.00;;;;;;;;;;5037783;28;20033;-61
2022/02/07 07:20:48;;;;;;;4.85;1.63;;;;;;;;;;5034148;28;20047;-61
2022/02/07 07:23:13;;;;;;;4.03;1.50;;;;;;;;;;5037048;28;20033;-61
2022/02/07 07:25:41;;;;;;;5.65;1.70;;;;;;;;;;5030956;28;20051;-61
2022/02/07 07:28:10;;;;;;;5.45;2.53;;;;;;;;;;5035848;28;20044;-61
2022/02/07 07:30:51;;;;;;;6.80;1.97;;;;;;;;;;5029044;28;20038;-61
2022/02/07 07:33:21;;;;;;;5.28;1.75;;;;;;;;;;5028288;28;20300;-61
2022/02/07 07:35:46;;;;;;;5.15;2.15;;;;;;;;;;5029200;28;20033;-61
2022/02/07 07:38:12;;;;;;;6.35;2.58;;;;;;;;;;5027441;28;20025;-61
2022/02/07 07:40:37;;;;;;;8.15;2.20;;;;;;;;;;5024400;28;20412;-61
2022/02/07 07:43:05;;;;;;;6.30;3.20;;;;;;;;;;5028796;28;20116;-62
2022/02/07 07:45:33;;;;;;;6.60;2.42;;;;;;;;;;5030484;28;20044;-62
2022/02/07 07:48:03;;;;;;;11.38;2.40;;;;;;;;;;5024983;28;20025;-63
2022/02/07 07:50:54;;;;;;;5.55;2.00;;;;;;;;;;5031010;28;20049;-61
2022/02/07 08:01:25;;;;;;;6.57;3.00;;;;;;;;;;5026779;28;20522;-61
2022/02/07 08:03:53;;;;;;;12.20;2.80;;;;;;;;;;5027917;28;20087;-61
2022/02/07 08:06:23;;;;;;;6.60;2.22;;;;;;;;;;5024896;28;20044;-61
2022/02/07 08:11:15;;;;;;;6.45;1.52;;;;;;;;;;5030391;28;20049;-61
2022/02/07 08:13:43;;;;;;;5.32;1.85;;;;;;;;;;5027397;28;20101;-61
2022/02/07 08:16:10;;;;;;;7.80;2.22;;;;;;;;;;5026213;28;20021;-61
2022/02/07 08:18:36;;;;;;;10.48;2.08;;;;;;;;;;5025281;28;20120;-62
2022/02/07 08:21:02;;;;;;;21.02;2.95;;;;;;;;;;5028432;28;20108;-61
2022/02/07 08:23:27;;;;;;;6.22;1.60;;;;;;;;;;5035587;28;20048;-61
2022/02/07 08:25:53;;;;;;;5.80;1.77;;;;;;;;;;5021891;28;20473;-61
2022/02/07 08:28:19;;;;;;;5.05;1.75;;;;;;;;;;5052261;28;20079;-61
2022/02/07 08:30:45;;;;;;;8.63;2.13;;;;;;;;;;5028336;28;20032;-62
2022/02/07 08:33:10;;;;;;;9.50;2.20;;;;;;;;;;5032602;28;20017;-61
2022/02/07 08:35:36;;;;;;;8.50;2.75;;;;;;;;;;5028823;28;20035;-61
2022/02/07 08:38:02;;;;;;;7.20;2.00;;;;;;;;;;5024849;28;20415;-61
2022/02/07 08:40:29;;;;;;;6.32;2.72;;;;;;;;;;5028688;28;20044;-61
2022/02/07 08:42:56;;;;;;;7.20;2.72;;;;;;;;;;5029378;28;20025;-61
2022/02/07 08:45:23;;;;;;;6.88;2.10;;;;;;;;;;5027807;28;20040;-61
2022/02/07 08:47:49;;;;;;;6.43;2.08;;;;;;;;;;5028674;28;20033;-61
2022/02/07 08:50:21;;;;;;;7.65;2.05;;;;;;;;;;5030569;28;20029;-61
2022/02/07 08:52:50;;;;;;;11.80;3.35;;;;;;;;;;5032678;28;20029;-61
2022/02/07 08:55:27;;;;;;;7.68;2.83;;;;;;;;;;5033045;28;20021;-61
2022/02/07 08:57:57;;;;;;;9.68;1.70;;;;;;;;;;5029169;28;20033;-61
2022/02/07 09:00:38;;;;;;;7.35;1.45;;;;;;;;;;5038079;28;20473;-61
2022/02/07 09:03:20;;;;;;;5.85;1.55;;;;;;;;;;5026438;28;20065;-62
2022/02/07 09:10:43;;;;;;;10.07;3.05;;;;;;;;;;5032845;28;20565;-61
2022/02/07 09:13:09;;;;;;;8.93;2.28;;;;;;;;;;5029308;28;20021;-61
2022/02/07 09:18:12;;;;;;;6.72;2.40;;;;;;;;;;5026778;28;20038;-61
2022/02/07 09:20:44;;;;;;;11.70;3.38;;;;;;;;;;5031201;28;20017;-62
2022/02/07 09:23:09;;;;;;;5.97;2.05;;;;;;;;;;5024047;28;20029;-61
2022/02/07 09:25:35;;;;;;;11.93;2.22;;;;;;;;;;5022335;28;20029;-61
2022/02/07 09:28:00;;;;;;;10.27;2.90;;;;;;;;;;5028517;28;20399;-62
2022/02/07 09:30:27;;;;;;;8.15;3.13;;;;;;;;;;5028466;28;20041;-62
2022/02/07 09:32:53;;;;;;;13.68;2.58;;;;;;;;;;5023511;28;20527;-62
2022/02/07 09:35:18;;;;;;;7.57;3.08;;;;;;;;;;5024712;28;20066;-61
2022/02/07 09:37:44;;;;;;;9.02;3.10;;;;;;;;;;5027590;28;20495;-61
2022/02/07 09:40:11;;;;;;;12.45;3.53;;;;;;;;;;5028600;28;20018;-61
2022/02/07 09:42:41;;;;;;;10.75;2.88;;;;;;;;;;5026604;28;20036;-61
2022/02/07 09:45:18;;;;;;;;;;;;;;;;;;5025895;28;20282;-62
2022/02/07 09:47:45;;;;;;;8.95;2.85;;;;;;;;;;5060806;28;19920;-62
2022/02/07 09:50:11;;;;;;;6.40;2.20;;;;;;;;;;5026728;28;20037;-62
2022/02/07 09:52:37;;;;;;;18.98;5.30;;;;;;;;;;5027172;28;20038;-62
2022/02/07 09:55:04;;;;;;;11.75;3.20;;;;;;;;;;5029190;28;20151;-62
2022/02/07 09:57:30;;;;;;;6.47;2.97;;;;;;;;;;5028527;28;20036;-62
2022/02/07 09:59:56;;;;;;;7.05;2.53;;;;;;;;;;5016314;28;20029;-61
2022/02/07 10:02:31;;;;;;;11.18;3.22;;;;;;;;;;5022501;28;20025;-62
2022/02/07 10:05:01;;;;;;;10.77;3.65;;;;;;;;;;5026773;28;20120;-61
2022/02/07 10:07:52;;;;;;;12.32;4.43;;;;;;;;;;5026014;28;20025;-62
2022/02/07 10:13:18;;;;;;;;;;;;;;;;;;;;;
2022/02/07 10:18:55;;;;;;;12.45;4.63;;;;;;;;;;5024637;28;20120;-62
2022/02/07 10:43:10;;;;;;;9.48;3.47;;;;;;;;;;5022008;28;20017;-62
2022/02/07 10:45:49;;;;;;;16.10;4.18;;;;;;;;;;5032180;28;20295;-62
2022/02/07 10:48:38;;;;;;;12.00;3.97;;;;;;;;;;5038053;28;20029;-61
2022/02/07 10:51:06;;;;;;;18.80;4.10;;;;;;;;;;5036623;28;20025;-62
2022/02/07 10:53:35;;;;;;;9.80;3.83;;;;;;;;;;5031208;28;20105;-62
2022/02/07 10:56:02;;;;;;;9.50;3.70;;;;;;;;;;5033734;28;20068;-62
2022/02/07 10:58:30;;;;;;;11.50;3.90;;;;;;;;;;5027333;28;20025;-62
2022/02/07 11:01:03;;;;;;;11.55;3.25;;;;;;;;;;5037115;28;20104;-62
2022/02/07 11:03:36;;;;;;;8.05;2.90;;;;;;;;;;5034919;28;20037;-61
2022/02/07 11:06:03;;;;;;;9.10;3.22;;;;;;;;;;5033642;28;20391;-62
2022/02/07 11:21:36;;;;;;;9.98;3.88;;;;;;;;;;5032687;28;20342;-62
2022/02/07 11:24:29;;;;;;;11.20;3.45;;;;;;;;;;5025194;28;20029;-62
2022/02/07 11:27:12;;;;;;;8.13;3.65;;;;;;;;;;5033137;28;20041;-62
2022/02/07 11:29:48;;;;;;;22.33;4.28;;;;;;;;;;5041355;28;20056;-62
2022/02/07 11:32:42;;;;;;;14.20;5.68;;;;;;;;;;5032813;28;20190;-63
2022/02/07 11:35:12;;;;;;;13.40;3.20;;;;;;;;;;5024456;28;20030;-62
2022/02/07 11:37:39;;;;;;;15.48;4.00;;;;;;;;;;5024796;28;20033;-62
2022/02/07 11:40:32;;;;;;;11.80;3.58;;;;;;;;;;5028352;28;20161;-63
2022/02/07 11:43:15;;;;;;;12.57;4.32;;;;;;;;;;5031206;28;20033;-63
2022/02/07 11:46:07;;;;;;;15.02;4.22;;;;;;;;;;5024332;28;20021;-63
2022/02/07 11:48:36;;;;;;;12.98;4.10;;;;;;;;;;5030211;28;20118;-62
2022/02/07 11:51:10;;;;;;;16.85;3.80;;;;;;;;;;5029236;28;20489;-63
2022/02/07 11:53:50;;;;;;;7.57;2.92;;;;;;;;;;5025830;28;20370;-62
2022/02/07 11:56:21;;;;;;;;;;;;;;;;;;5031487;28;20018;-63
2022/02/07 11:59:07;;;;;;;10.65;3.78;;;;;;;;;;5031510;28;19921;-63
2022/02/07 12:01:59;;;;;;;12.52;3.95;;;;;;;;;;5044086;28;20044;-63
2022/02/07 12:04:38;;;;;;;13.00;3.60;;;;;;;;;;5026394;28;20124;-63
2022/02/07 12:07:07;;;;;;;10.13;2.70;;;;;;;;;;5029228;28;21258;-63
2022/02/07 12:09:33;;;;;;;9.70;3.92;;;;;;;;;;5026178;28;20029;-63
2022/02/07 12:11:59;;;;;;;11.70;3.45;;;;;;;;;;5032221;28;20025;-63
2022/02/07 12:14:38;;;;;;;11.20;3.00;;;;;;;;;;5031470;28;20080;-63
2022/02/07 12:17:04;;;;;;;9.52;3.10;;;;;;;;;;5034518;28;20028;-63
2022/02/07 12:19:40;;;;;;;14.38;3.35;;;;;;;;;;5037413;28;20066;-63
2022/02/07 12:22:47;;;;;;;12.07;3.20;;;;;;;;;;5029789;28;20136;-63
2022/02/07 12:25:29;;;;;;;9.05;3.58;;;;;;;;;;5026560;28;20033;-63
2022/02/07 12:28:01;;;;;;;17.02;3.97;;;;;;;;;;5026904;28;20103;-63
2022/02/07 12:30:31;;;;;;;12.65;3.72;;;;;;;;;;5027258;28;20035;-63
2022/02/07 12:33:03;;;;;;;22.65;6.55;;;;;;;;;;5035168;28;20036;-63
2022/02/07 12:35:29;;;;;;;14.95;3.78;;;;;;;;;;5026053;28;20017;-63
2022/02/07 12:37:55;;;;;;;14.18;3.33;;;;;;;;;;5026280;28;20025;-62
2022/02/07 12:40:20;;;;;;;11.98;3.58;;;;;;;;;;5029259;28;20094;-63
2022/02/07 12:42:46;;;;;;;14.40;3.83;;;;;;;;;;5026220;28;20033;-62
2022/02/07 12:45:11;;;;;;;8.88;3.97;;;;;;;;;;5024316;28;20566;-62
2022/02/07 12:47:39;;;;;;;13.52;3.70;;;;;;;;;;5030079;28;20057;-61
2022/02/07 12:50:17;;;;;;;11.02;3.00;;;;;;;;;;5026952;28;20026;-61
2022/02/07 12:52:43;;;;;;;12.18;3.63;;;;;;;;;;5029738;28;20025;-62
2022/02/07 12:55:14;;;;;;;15.77;3.65;;;;;;;;;;5030358;28;20377;-61
2022/02/07 12:57:40;;;;;;;8.35;3.28;;;;;;;;;;5025433;28;20136;-62
2022/02/07 13:00:18;;;;;;;16.50;3.03;;;;;;;;;;5026509;28;20029;-62
2022/02/07 13:02:48;;;;;;;18.15;3.63;;;;;;;;;;5027711;28;20464;-61
2022/02/07 13:05:19;;;;;;;14.52;2.75;;;;;;;;;;5029896;28;20554;-61
2022/02/07 13:07:48;;;;;;;8.82;3.55;;;;;;;;;;5024092;28;20029;-62
2022/02/07 13:10:18;;;;;;;9.93;2.92;;;;;;;;;;5028128;28;20033;-62
2022/02/07 13:15:22;;;;;;;8.98;2.75;;;;;;;;;;5026074;28;20475;-62
2022/02/07 13:17:52;;;;;;;7.10;2.40;;;;;;;;;;5024718;28;20472;-63
2022/02/07 13:20:19;;;;;;;22.05;2.92;;;;;;;;;;5030166;28;20120;-62
2022/02/07 13:22:46;;;;;;;12.48;2.92;;;;;;;;;;5028047;28;20483;-62
2022/02/07 13:25:13;;;;;;;12.38;3.03;;;;;;;;;;5032128;28;20080;-62
2022/02/07 13:27:40;;;;;;;10.55;2.47;;;;;;;;;;5028595;28;20480;-62
2022/02/07 13:30:12;;;;;;;8.07;2.20;;;;;;;;;;5029505;28;20029;-62
2022/02/07 13:32:40;;;;;;;11.80;3.30;;;;;;;;;;5026797;28;20037;-62
2022/02/07 13:35:13;;;;;;;9.73;3.17;;;;;;;;;;5026534;28;20033;-61
2022/02/07 13:37:41;;;;;;;13.80;4.00;;;;;;;;;;5022565;28;20435;-61
2022/02/07 13:40:12;;;;;;;16.40;5.05;;;;;;;;;;5028912;28;20109;-62
2022/02/07 13:42:49;;;;;;;21.88;5.38;;;;;;;;;;5026792;28;20033;-62
2022/02/07 13:45:18;;;;;;;19.00;5.65;;;;;;;;;;5026439;28;20033;-61
2022/02/07 13:47:53;;;;;;;12.07;3.65;;;;;;;;;;5022744;28;20022;-62
2022/02/07 13:50:22;;;;;;;20.75;4.65;;;;;;;;;;5029045;28;20037;-62
2022/02/07 13:52:50;;;;;;;13.98;4.00;;;;;;;;;;5028060;28;20100;-62
2022/02/07 13:55:15;;;;;;;9.43;3.28;;;;;;;;;;5033507;28;20035;-61
2022/02/07 13:58:14;;;;;;;7.53;2.90;;;;;;;;;;5025769;28;20022;-61
2022/02/07 14:00:53;;;;;;;9.45;3.70;;;;;;;;;;5025984;28;20022;-62
2022/02/07 14:03:19;;;;;;;9.43;2.95;;;;;;;;;;5033722;28;20052;-62
2022/02/07 14:05:53;;;;;;;8.00;2.58;;;;;;;;;;5029403;28;20024;-62
2022/02/07 14:08:38;;;;;;;12.02;2.92;;;;;;;;;;5026106;28;20316;-62
2022/02/07 14:11:07;;;;;;;8.30;2.80;;;;;;;;;;5028198;28;20030;-62
2022/02/07 14:13:34;;;;;;;13.13;4.03;;;;;;;;;;5034086;28;20053;-62
2022/02/07 14:16:00;;;;;;;9.93;2.55;;;;;;;;;;5031041;28;20112;-62
2022/02/07 14:18:26;;;;;;;10.70;2.40;;;;;;;;;;5032713;28;20112;-62
2022/02/07 14:20:53;;;;;;;6.85;2.65;;;;;;;;;;5040364;28;20079;-62
2022/02/07 14:23:18;;;;;;;10.95;2.60;;;;;;;;;;5038029;28;20035;-63
2022/02/07 14:25:48;;;;;;;7.10;2.58;;;;;;;;;;5031553;28;20123;-62
2022/02/07 14:28:14;;;;;;;15.13;3.75;;;;;;;;;;5031448;28;20025;-63
2022/02/07 14:30:39;;;;;;;8.25;2.35;;;;;;;;;;5028602;28;20037;-63
2022/02/07 14:33:05;;;;;;;8.40;2.85;;;;;;;;;;5033456;28;20014;-62
2022/02/07 14:35:32;;;;;;;6.90;2.90;;;;;;;;;;5029038;28;20064;-62
2022/02/07 14:38:00;;;;;;;7.63;2.67;;;;;;;;;;5028891;28;20470;-62
2022/02/07 14:40:25;;;;;;;10.75;2.55;;;;;;;;;;5030380;28;20055;-61
2022/02/07 14:42:51;;;;;;;10.60;2.92;;;;;;;;;;5031476;28;20095;-62
2022/02/07 14:45:24;;;;;;;10.57;3.15;;;;;;;;;;5027436;28;20155;-62
2022/02/07 14:50:23;;;;;;;7.55;3.15;;;;;;;;;;5032586;28;20164;-61
2022/02/07 14:52:50;;;;;;;8.85;2.95;;;;;;;;;;5031986;28;20098;-62
2022/02/07 14:55:16;;;;;;;5.28;2.78;;;;;;;;;;5029896;28;20531;-62
2022/02/07 14:57:42;;;;;;;6.45;2.63;;;;;;;;;;5028850;28;20500;-62
2022/02/07 15:00:11;;;;;;;8.80;2.63;;;;;;;;;;5031562;28;20040;-62
2022/02/07 15:02:37;;;;;;;9.13;2.83;;;;;;;;;;5030287;28;20029;-62
2022/02/07 15:05:03;;;;;;;11.48;2.90;;;;;;;;;;5036242;28;20033;-62
2022/02/07 15:07:29;;;;;;;6.28;2.60;;;;;;;;;;5035068;28;20109;-62
2022/02/07 15:09:55;;;;;;;5.35;2.63;;;;;;;;;;5035776;28;20586;-62
2022/02/07 15:12:20;;;;;;;6.38;2.72;;;;;;;;;;5031756;28;20049;-62
2022/02/07 15:14:49;;;;;;;6.07;2.25;;;;;;;;;;5034727;28;20376;-62
2022/02/07 15:17:22;;;;;;;5.75;2.45;;;;;;;;;;5028592;28;20025;-62
2022/02/07 15:19:47;;;;;;;6.10;2.90;;;;;;;;;;5030147;28;20036;-63
2022/02/07 15:22:14;;;;;;;5.22;2.42;;;;;;;;;;5034701;28;20407;-63
2022/02/07 15:24:40;;;;;;;7.78;3.00;;;;;;;;;;5036451;28;20037;-63
2022/02/07 15:27:09;;;;;;;10.52;3.55;;;;;;;;;;5028805;28;20029;-61
2022/02/07 15:29:35;;;;;;;9.25;3.15;;;;;;;;;;5026167;28;20559;-62
2022/02/07 15:34:44;;;;;;;10.50;3.03;;;;;;;;;;5031034;28;20056;-61
2022/02/07 15:37:10;;;;;;;9.07;4.25;;;;;;;;;;5027828;28;20037;-61
2022/02/07 15:39:36;;;;;;;12.15;4.32;;;;;;;;;;5029791;28;20026;-61
2022/02/07 15:42:03;;;;;;;29.13;8.20;;;;;;;;;;5033037;28;20037;-62
2022/02/07 15:44:29;;;;;;;16.77;6.45;;;;;;;;;;5029369;28;20057;-63
2022/02/07 15:46:55;;;;;;;9.10;4.28;;;;;;;;;;5032846;28;20053;-62
2022/02/07 15:49:20;;;;;;;16.50;5.35;;;;;;;;;;5031471;28;20510;-61
2022/02/07 15:51:46;;;;;;;11.02;3.33;;;;;;;;;;5034300;28;20021;-62
2022/02/07 15:54:11;;;;;;;11.52;4.85;;;;;;;;;;5031777;28;20550;-61
2022/02/07 15:56:37;;;;;;;11.05;3.70;;;;;;;;;;5026196;28;20108;-61
2022/02/07 15:59:03;;;;;;;12.27;3.88;;;;;;;;;;5030301;28;20037;-62
2022/02/07 16:01:29;;;;;;;7.53;2.97;;;;;;;;;;5032962;28;20017;-63
2022/02/07 16:03:54;;;;;;;11.90;4.07;;;;;;;;;;5036000;28;20460;-62
2022/02/07 16:06:20;;;;;;;11.95;3.40;;;;;;;;;;5034491;28;20025;-62
2022/02/07 16:08:46;;;;;;;8.70;3.65;;;;;;;;;;5025060;28;20031;-62
2022/02/07 16:11:14;;;;;;;11.23;4.18;;;;;;;;;;5033093;28;20033;-62
2022/02/07 16:13:46;;;;;;;8.85;3.08;;;;;;;;;;5031458;28;20171;-62
2022/02/07 16:16:11;;;;;;;7.28;3.30;;;;;;;;;;5027458;28;20033;-61
2022/02/07 16:18:40;;;;;;;14.88;4.10;;;;;;;;;;5035781;28;20028;-61
2022/02/07 16:21:06;;;;;;;8.55;3.20;;;;;;;;;;5041080;28;20032;-62
2022/02/07 16:23:32;;;;;;;13.60;4.45;;;;;;;;;;5032637;28;20457;-61
2022/02/07 16:25:58;;;;;;;11.45;3.53;;;;;;;;;;5031729;28;20055;-62
2022/02/07 16:28:23;;;;;;;9.20;2.72;;;;;;;;;;5036728;28;20485;-62
2022/02/07 16:30:50;;;;;;;12.82;4.43;;;;;;;;;;5029777;28;20081;-62
2022/02/07 16:33:16;;;;;;;15.85;3.53;;;;;;;;;;5031238;28;20044;-62
2022/02/07 16:35:43;;;;;;;11.20;3.88;;;;;;;;;;5032550;28;20021;-62
2022/02/07 16:38:09;;;;;;;20.92;4.68;;;;;;;;;;5031923;28;20049;-62
2022/02/07 16:40:37;;;;;;;14.88;4.50;;;;;;;;;;5026618;28;20168;-62
2022/02/07 16:43:03;;;;;;;9.68;2.50;;;;;;;;;;5033913;28;20026;-62
2022/02/07 16:46:00;;;;;;;11.57;4.18;;;;;;;;;;5033071;28;20044;-61
2022/02/07 16:48:24;;;;;;;16.17;4.80;;;;;;;;;;5035266;28;20496;-60
2022/02/07 16:50:49;;;;;;;14.38;4.70;;;;;;;;;;5034602;28;20073;-60
2022/02/07 16:53:16;;;;;;;14.75;5.97;;;;;;;;;;5032937;28;20388;-60
2022/02/07 16:55:45;;;;;;;13.02;4.75;;;;;;;;;;5030314;28;20053;-60
2022/02/07 16:58:11;;;;;;;10.35;4.35;;;;;;;;;;5032634;28;20025;-59
2022/02/07 17:00:37;;;;;;;9.27;3.78;;;;;;;;;;5028689;28;20040;-59
2022/02/07 17:03:05;;;;;;;10.52;4.30;;;;;;;;;;5035993;28;20021;-60
2022/02/07 17:05:31;;;;;;;16.08;4.82;;;;;;;;;;5035348;28;20040;-59
2022/02/07 17:07:56;;;;;;;11.98;4.10;;;;;;;;;;5034126;28;20032;-61
2022/02/07 17:10:22;;;;;;;11.00;4.55;;;;;;;;;;5030012;28;20036;-60
2022/02/07 17:12:51;;;;;;;17.45;3.90;;;;;;;;;;5035899;28;20285;-60
2022/02/07 17:15:18;;;;;;;13.13;4.70;;;;;;;;;;5029257;28;20021;-60
2022/02/07 17:17:45;;;;;;;10.98;3.83;;;;;;;;;;5034713;28;20041;-60
2022/02/07 17:20:12;;;;;;;12.63;3.78;;;;;;;;;;5035855;28;20025;-60
2022/02/07 17:22:38;;;;;;;10.60;4.10;;;;;;;;;;5032283;28;20034;-60
2022/02/07 17:25:05;;;;;;;10.60;4.57;;;;;;;;;;5034462;28;20071;-59
2022/02/07 17:27:30;;;;;;;10.63;4.32;;;;;;;;;;5031470;28;20040;-60
2022/02/07 17:29:56;;;;;;;12.05;4.57;;;;;;;;;;5034566;28;20026;-60
2022/02/07 17:32:21;;;;;;;18.13;4.68;;;;;;;;;;5034459;28;20073;-61
2022/02/07 17:34:47;;;;;;;13.90;5.15;;;;;;;;;;5030274;28;20028;-59
2022/02/07 17:37:13;;;;;;;14.65;4.72;;;;;;;;;;5029771;28;20405;-60